createdAt,value
2017-12-03T00:02:16.084Z,15.77
2017-12-03T00:04:42.213Z,16.80
2017-12-03T00:07:08.350Z,16.90
2017-12-03T00:09:34.428Z,16.57
2017-12-03T00:12:00.688Z,15.37
2017-12-03T00:14:26.862Z,15.97
2017-12-03T00:16:52.913Z,14.70
2017-12-03T00:19:19.004Z,15.70
2017-12-03T00:21:45.160Z,13.70
2017-12-03T00:24:11.304Z,15.07
2017-12-03T00:26:37.462Z,16.20
2017-12-03T00:29:03.605Z,14.30
2017-12-03T00:31:29.800Z,14.90
2017-12-03T00:33:55.928Z,15.00
2017-12-03T00:36:22.101Z,14.27
2017-12-03T00:38:48.262Z,13.83
2017-12-03T00:41:14.418Z,15.23
2017-12-03T00:43:40.538Z,16.50
2017-12-03T00:46:06.744Z,16.17
2017-12-03T00:48:32.874Z,12.50
2017-12-03T00:50:58.988Z,13.90
2017-12-03T00:53:25.120Z,15.53
2017-12-03T00:55:51.220Z,14.00
2017-12-03T00:58:17.562Z,14.43
2017-12-03T01:00:43.629Z,14.67
2017-12-03T01:03:09.840Z,13.50
2017-12-03T01:05:35.973Z,16.10
2017-12-03T01:08:02.069Z,14.97
2017-12-03T01:10:28.246Z,14.87
2017-12-03T01:12:54.467Z,14.07
2017-12-03T01:15:20.694Z,15.13
2017-12-03T01:17:46.772Z,15.30
2017-12-03T01:20:12.932Z,13.33
2017-12-03T01:22:39.131Z,13.87
2017-12-03T01:25:05.280Z,12.47
2017-12-03T01:27:31.415Z,16.60
2017-12-03T01:29:57.445Z,13.40
2017-12-03T01:32:23.582Z,13.63
2017-12-03T01:34:49.694Z,12.50
2017-12-03T01:37:15.796Z,14.00
2017-12-03T01:39:41.977Z,13.10
2017-12-03T01:42:08.125Z,14.00
2017-12-03T01:44:34.208Z,13.97
2017-12-03T01:47:00.398Z,15.80
2017-12-03T01:49:26.508Z,15.03
2017-12-03T01:51:52.717Z,14.73
2017-12-03T01:54:18.760Z,16.07
2017-12-03T01:56:44.973Z,15.40
2017-12-03T01:59:11.156Z,13.50
2017-12-03T02:01:37.256Z,13.40
2017-12-03T02:04:03.493Z,13.17
2017-12-03T02:06:29.631Z,13.03
2017-12-03T02:08:55.752Z,14.20
2017-12-03T02:11:21.920Z,12.90
2017-12-03T02:13:48.034Z,13.17
2017-12-03T02:16:14.130Z,13.53
2017-12-03T02:18:40.252Z,11.93
2017-12-03T02:21:06.441Z,12.90
2017-12-03T02:23:32.536Z,13.07
2017-12-03T02:25:58.700Z,11.97
2017-12-03T02:28:24.832Z,13.63
2017-12-03T02:30:50.966Z,14.37
2017-12-03T02:33:17.100Z,12.87
2017-12-03T02:35:43.218Z,11.77
2017-12-03T02:38:09.463Z,13.10
2017-12-03T02:40:35.569Z,12.50
2017-12-03T02:43:01.654Z,12.87
2017-12-03T02:45:27.827Z,11.83
2017-12-03T02:47:53.919Z,14.30
2017-12-03T02:50:20.143Z,12.63
2017-12-03T02:52:46.235Z,12.27
2017-12-03T02:55:12.308Z,12.53
2017-12-03T02:57:38.507Z,13.30
2017-12-03T03:00:04.684Z,12.77
2017-12-03T03:02:30.824Z,12.03
2017-12-03T03:04:56.937Z,12.50
2017-12-03T03:07:23.036Z,11.43
2017-12-03T03:09:49.111Z,12.70
2017-12-03T03:12:15.229Z,13.20
2017-12-03T03:14:41.288Z,14.00
2017-12-03T03:17:07.404Z,12.80
2017-12-03T03:19:33.505Z,12.77
2017-12-03T03:21:59.657Z,12.60
2017-12-03T03:24:25.759Z,12.60
2017-12-03T03:26:51.908Z,12.87
2017-12-03T03:29:18.000Z,14.30
2017-12-03T03:31:44.150Z,14.73
2017-12-03T03:34:10.303Z,14.17
2017-12-03T03:36:36.358Z,12.17
2017-12-03T03:39:02.461Z,14.50
2017-12-03T03:41:28.603Z,15.70
2017-12-03T03:43:54.708Z,15.57
2017-12-03T03:46:20.841Z,14.60
2017-12-03T03:48:46.916Z,14.83
2017-12-03T03:51:13.079Z,15.50
2017-12-03T03:53:39.175Z,12.53
2017-12-03T03:56:05.277Z,13.60
2017-12-03T03:58:31.369Z,13.57
2017-12-03T04:00:57.424Z,15.73
2017-12-03T04:03:23.534Z,13.50
2017-12-03T04:05:49.607Z,15.50
2017-12-03T04:08:15.721Z,14.97
2017-12-03T04:10:41.909Z,14.70
2017-12-03T04:13:08.037Z,15.93
2017-12-03T04:15:34.123Z,14.60
2017-12-03T04:18:00.201Z,13.70
2017-12-03T04:20:26.332Z,14.83
2017-12-03T04:22:52.504Z,13.63
2017-12-03T04:25:18.606Z,15.30
2017-12-03T04:27:44.793Z,14.60
2017-12-03T04:30:10.968Z,15.10
2017-12-03T04:32:37.136Z,16.50
2017-12-03T04:35:03.319Z,15.40
2017-12-03T04:37:29.540Z,13.97
2017-12-03T04:39:55.660Z,13.70
2017-12-03T04:42:21.784Z,14.90
2017-12-03T04:44:47.908Z,14.10
2017-12-03T04:47:14.135Z,15.07
2017-12-03T04:49:40.252Z,14.77
2017-12-03T04:52:06.353Z,18.10
2017-12-03T04:54:32.424Z,17.10
2017-12-03T04:56:58.647Z,16.80
2017-12-03T04:59:24.746Z,14.97
2017-12-03T05:01:50.824Z,15.53
2017-12-03T05:04:16.876Z,16.80
2017-12-03T05:06:42.976Z,14.97
2017-12-03T05:09:09.140Z,17.13
2017-12-03T05:11:35.197Z,15.70
2017-12-03T05:14:01.267Z,16.43
2017-12-03T05:16:27.430Z,18.80
2017-12-03T05:18:53.480Z,16.13
2017-12-03T05:21:19.557Z,15.17
2017-12-03T05:23:45.628Z,17.30
2017-12-03T05:26:11.732Z,16.00
2017-12-03T05:28:37.792Z,16.37
2017-12-03T05:31:03.909Z,18.40
2017-12-03T05:33:29.991Z,14.23
2017-12-03T05:35:56.072Z,15.37
2017-12-03T05:38:22.236Z,17.17
2017-12-03T05:40:48.285Z,15.00
2017-12-03T05:43:14.485Z,17.50
2017-12-03T05:45:40.535Z,16.30
2017-12-03T05:48:06.652Z,16.10
2017-12-03T05:50:32.744Z,15.67
2017-12-03T05:52:58.824Z,16.10
2017-12-03T05:55:24.939Z,14.60
2017-12-03T05:57:51.131Z,14.00
2017-12-03T06:00:17.249Z,16.20
2017-12-03T06:02:43.327Z,15.63
2017-12-03T06:05:09.417Z,15.70
2017-12-03T06:07:35.482Z,14.80
2017-12-03T06:10:01.607Z,14.30
2017-12-03T06:12:27.688Z,19.00
2017-12-03T06:14:53.789Z,15.17
2017-12-03T06:17:19.940Z,16.90
2017-12-03T06:19:46.004Z,17.57
2017-12-03T06:22:12.092Z,15.93
2017-12-03T06:24:38.274Z,17.13
2017-12-03T06:27:04.521Z,17.20
2017-12-03T06:29:30.636Z,18.40
2017-12-03T06:31:56.708Z,16.00
2017-12-03T06:34:22.854Z,18.27
2017-12-03T06:36:48.908Z,19.90
2017-12-03T06:39:15.007Z,19.73
2017-12-03T06:41:41.133Z,21.80
2017-12-03T06:44:07.244Z,20.23
2017-12-03T06:46:33.408Z,21.40
2017-12-03T06:48:59.523Z,19.53
2017-12-03T06:51:25.625Z,18.37
2017-12-03T06:53:51.632Z,17.23
2017-12-03T06:56:17.696Z,20.67
2017-12-03T06:58:43.822Z,20.57
2017-12-03T07:01:09.884Z,19.93
2017-12-03T07:03:35.980Z,18.37
2017-12-03T07:06:02.064Z,20.37
2017-12-03T07:08:28.153Z,18.20
2017-12-03T07:10:54.268Z,19.00
2017-12-03T07:13:20.415Z,19.77
2017-12-03T07:15:46.530Z,19.67
2017-12-03T07:18:12.708Z,19.73
2017-12-03T07:20:38.932Z,19.00
2017-12-03T07:23:04.954Z,18.40
2017-12-03T07:25:31.052Z,20.47
2017-12-03T07:27:57.156Z,19.80
2017-12-03T07:30:23.332Z,19.03
2017-12-03T07:32:49.404Z,19.57
2017-12-03T07:35:15.568Z,17.97
2017-12-03T07:37:41.681Z,17.70
2017-12-03T07:40:07.792Z,20.07
2017-12-03T07:42:33.911Z,20.33
2017-12-03T07:45:00.059Z,19.00
2017-12-03T07:47:26.185Z,20.10
2017-12-03T07:49:52.320Z,19.47
2017-12-03T07:52:18.403Z,19.53
2017-12-03T07:54:44.471Z,20.80
2017-12-03T07:57:10.661Z,21.00
2017-12-03T07:59:36.728Z,19.87
2017-12-03T08:02:02.868Z,21.00
2017-12-03T08:04:28.993Z,21.30
2017-12-03T08:06:55.148Z,21.73
2017-12-03T08:09:21.234Z,27.17
2017-12-03T08:11:47.348Z,25.37
2017-12-03T08:14:13.427Z,21.03
2017-12-03T08:16:39.515Z,23.63
2017-12-03T08:19:05.617Z,21.17
2017-12-03T08:21:31.721Z,20.07
2017-12-03T08:23:57.841Z,21.20
2017-12-03T08:26:24.197Z,21.53
2017-12-03T08:28:50.276Z,21.80
2017-12-03T08:31:16.427Z,24.17
2017-12-03T08:33:42.469Z,24.67
2017-12-03T08:36:08.684Z,18.93
2017-12-03T08:38:34.780Z,19.60
2017-12-03T08:41:00.857Z,22.47
2017-12-03T08:43:26.936Z,20.73
2017-12-03T08:45:53.076Z,21.53
2017-12-03T08:48:19.188Z,21.30
2017-12-03T08:50:45.263Z,21.43
2017-12-03T08:53:11.395Z,22.40
2017-12-03T08:55:37.509Z,27.20
2017-12-03T08:58:03.660Z,23.20
2017-12-03T09:00:29.811Z,23.20
2017-12-03T09:02:55.903Z,18.90
2017-12-03T09:05:22.033Z,19.73
2017-12-03T09:07:48.120Z,16.57
2017-12-03T09:10:14.225Z,18.50
2017-12-03T09:12:40.347Z,17.00
2017-12-03T09:15:06.503Z,19.27
2017-12-03T09:17:33.094Z,12.67
2017-12-03T09:19:59.182Z,13.93
2017-12-03T09:22:25.326Z,17.30
2017-12-03T09:24:51.408Z,15.17
2017-12-03T09:27:17.551Z,17.47
2017-12-03T09:29:43.671Z,16.10
2017-12-03T09:32:09.712Z,16.87
2017-12-03T09:34:35.845Z,14.10
2017-12-03T09:37:01.936Z,16.40
2017-12-03T09:39:27.996Z,14.53
2017-12-03T09:41:54.132Z,9.63
2017-12-03T09:44:20.241Z,9.97
2017-12-03T09:46:46.346Z,10.13
2017-12-03T09:49:12.432Z,10.20
2017-12-03T09:51:38.600Z,9.50
2017-12-03T09:54:04.736Z,10.93
2017-12-03T09:56:30.795Z,9.83
2017-12-03T09:58:56.888Z,8.93
2017-12-03T10:01:22.973Z,10.57
2017-12-03T10:03:49.105Z,9.73
2017-12-03T10:06:15.183Z,10.20
2017-12-03T10:08:41.261Z,10.13
2017-12-03T10:11:07.428Z,10.10
2017-12-03T10:13:33.528Z,9.27
2017-12-03T10:15:59.610Z,7.93
2017-12-03T10:18:25.703Z,7.50
2017-12-03T10:20:51.838Z,9.73
2017-12-03T10:23:17.916Z,8.03
2017-12-03T10:25:44.065Z,10.83
2017-12-03T10:28:10.146Z,10.17
2017-12-03T10:30:36.236Z,8.40
2017-12-03T10:33:02.300Z,8.70
2017-12-03T10:35:28.424Z,9.00
2017-12-03T10:38:07.005Z,9.40
2017-12-03T10:40:33.077Z,8.20
2017-12-03T10:42:59.227Z,6.83
2017-12-03T10:45:25.345Z,9.13
2017-12-03T10:47:51.771Z,9.83
2017-12-03T10:50:17.941Z,8.87
2017-12-03T10:52:44.389Z,8.37
2017-12-03T10:55:10.537Z,8.23
2017-12-03T10:57:36.654Z,9.13
2017-12-03T11:00:02.736Z,9.57
2017-12-03T11:02:28.893Z,9.83
2017-12-03T11:04:55.340Z,6.37
2017-12-03T11:07:21.723Z,6.50
2017-12-03T11:09:48.386Z,8.93
2017-12-03T11:12:14.605Z,8.40
2017-12-03T11:14:40.911Z,8.17
2017-12-03T11:17:07.304Z,7.57
2017-12-03T11:19:33.457Z,11.80
2017-12-03T11:21:59.628Z,8.47
2017-12-03T11:24:25.762Z,8.50
2017-12-03T11:26:51.963Z,6.70
2017-12-03T11:29:18.105Z,9.93
2017-12-03T11:31:44.509Z,5.10
2017-12-03T11:34:10.640Z,10.17
2017-12-03T11:36:36.788Z,8.50
2017-12-03T11:39:02.848Z,10.53
2017-12-03T11:41:29.260Z,8.77
2017-12-03T11:43:55.678Z,9.30
2017-12-03T11:46:21.844Z,7.27
2017-12-03T11:48:48.016Z,8.93
2017-12-03T11:51:14.156Z,7.50
2017-12-03T11:53:40.497Z,9.80
2017-12-03T11:56:06.609Z,11.50
2017-12-03T11:58:32.756Z,7.27
2017-12-03T12:00:59.104Z,9.00
2017-12-03T12:03:26.308Z,10.17
2017-12-03T12:05:52.896Z,10.70
2017-12-03T12:08:19.465Z,10.17
2017-12-03T12:10:45.813Z,7.40
2017-12-03T12:13:12.815Z,12.13
2017-12-03T12:15:38.977Z,12.50
2017-12-03T12:18:05.585Z,12.63
2017-12-03T12:20:31.893Z,9.03
2017-12-03T12:22:58.222Z,13.90
2017-12-03T12:25:24.600Z,14.10
2017-12-03T12:27:50.861Z,14.90
2017-12-03T12:30:17.262Z,13.27
2017-12-03T12:32:43.416Z,9.00
2017-12-03T12:35:09.773Z,11.50
2017-12-03T12:37:36.202Z,12.00
2017-12-03T12:40:02.365Z,14.83
2017-12-03T12:42:28.742Z,12.00
2017-12-03T12:44:54.948Z,13.90
2017-12-03T12:47:21.147Z,14.50
2017-12-03T12:49:47.568Z,12.60
2017-12-03T12:52:13.971Z,16.87
2017-12-03T12:54:40.099Z,14.70
2017-12-03T12:57:06.260Z,11.83
2017-12-03T12:59:32.846Z,14.10
2017-12-03T13:01:58.997Z,13.00
2017-12-03T13:04:25.380Z,16.53
2017-12-03T13:06:51.709Z,14.20
2017-12-03T13:09:18.075Z,16.73
2017-12-03T13:11:44.244Z,14.07
2017-12-03T13:14:12.461Z,14.03
2017-12-03T13:16:38.824Z,17.50
2017-12-03T13:19:05.131Z,17.00
2017-12-03T13:21:31.321Z,17.30
2017-12-03T13:23:57.846Z,14.70
2017-12-03T13:26:24.309Z,16.03
2017-12-03T13:28:50.742Z,20.47
2017-12-03T13:31:16.922Z,19.23
2017-12-03T13:33:43.345Z,18.57
2017-12-03T13:36:09.745Z,19.10
2017-12-03T13:38:35.862Z,18.73
2017-12-03T13:41:02.006Z,18.17
2017-12-03T13:43:28.248Z,18.87
2017-12-03T13:45:54.485Z,19.23
2017-12-03T13:48:20.645Z,19.43
2017-12-03T13:50:46.830Z,17.13
2017-12-03T13:53:12.973Z,19.73
2017-12-03T13:55:39.130Z,18.13
2017-12-03T13:58:05.321Z,17.13
2017-12-03T14:00:31.584Z,18.87
2017-12-03T14:02:58.200Z,15.73
2017-12-03T14:05:24.768Z,18.50
2017-12-03T14:07:51.088Z,20.80
2017-12-03T14:10:17.498Z,22.67
2017-12-03T14:12:43.933Z,21.80
2017-12-03T14:15:10.339Z,24.93
2017-12-03T14:17:36.905Z,19.70
2017-12-03T14:20:03.177Z,21.20
2017-12-03T14:22:29.331Z,21.77
2017-12-03T14:24:55.489Z,21.13
2017-12-03T14:27:21.696Z,21.20
2017-12-03T14:29:48.357Z,24.13
2017-12-03T14:32:14.746Z,20.90
2017-12-03T14:34:40.901Z,21.10
2017-12-03T14:37:07.097Z,23.57
2017-12-03T14:39:33.240Z,23.87
2017-12-03T14:41:59.416Z,21.80
2017-12-03T14:44:25.588Z,22.40
2017-12-03T14:46:51.741Z,23.10
2017-12-03T14:49:18.111Z,22.17
2017-12-03T14:51:44.279Z,23.90
2017-12-03T14:54:10.444Z,23.63
2017-12-03T14:56:36.551Z,20.93
2017-12-03T14:59:02.757Z,20.77
2017-12-03T15:01:29.436Z,21.80
2017-12-03T15:03:55.656Z,21.70
2017-12-03T15:06:21.778Z,22.20
2017-12-03T15:08:47.922Z,20.10
2017-12-03T15:11:14.032Z,24.13
2017-12-03T15:13:40.441Z,21.60
2017-12-03T15:16:06.548Z,21.30
2017-12-03T15:18:32.745Z,23.37
2017-12-03T15:20:59.188Z,20.90
2017-12-03T15:23:25.795Z,23.63
2017-12-03T15:25:52.152Z,27.10
2017-12-03T15:28:18.601Z,26.30
2017-12-03T15:30:45.552Z,27.57
2017-12-03T15:33:11.643Z,23.90
2017-12-03T15:35:37.952Z,25.30
2017-12-03T15:38:04.488Z,23.60
2017-12-03T15:40:30.820Z,25.20
2017-12-03T15:42:57.517Z,23.20
2017-12-03T15:45:23.644Z,27.37
2017-12-03T15:47:49.801Z,24.10
2017-12-03T15:50:16.006Z,24.53
2017-12-03T15:52:42.104Z,26.00
2017-12-03T15:55:08.222Z,23.60
2017-12-03T15:57:34.352Z,21.43
2017-12-03T16:00:00.514Z,23.27
2017-12-03T16:02:26.700Z,25.40
2017-12-03T16:04:53.081Z,23.03
2017-12-03T16:07:19.472Z,23.27
2017-12-03T16:09:45.710Z,26.60
2017-12-03T16:12:11.981Z,25.90
2017-12-03T16:14:38.369Z,21.87
2017-12-03T16:17:04.471Z,25.23
2017-12-03T16:19:30.672Z,24.23
2017-12-03T16:21:57.027Z,25.50
2017-12-03T16:24:23.147Z,27.60
2017-12-03T16:26:49.613Z,19.43
2017-12-03T16:29:15.773Z,22.87
2017-12-03T16:31:42.506Z,26.50
2017-12-03T16:34:08.865Z,25.43
2017-12-03T16:36:35.066Z,26.80
2017-12-03T16:39:01.317Z,23.47
2017-12-03T16:41:27.532Z,25.50
2017-12-03T16:43:53.659Z,25.17
2017-12-03T16:46:19.823Z,24.93
2017-12-03T16:48:45.875Z,22.73
2017-12-03T16:51:12.033Z,23.73
2017-12-03T16:53:38.217Z,23.47
2017-12-03T16:56:04.420Z,24.43
2017-12-03T16:58:31.004Z,23.87
2017-12-03T17:00:57.128Z,24.23
2017-12-03T17:03:23.340Z,23.33
2017-12-03T17:05:49.520Z,25.00
2017-12-03T17:08:15.797Z,23.60
2017-12-03T17:10:41.978Z,25.00
2017-12-03T17:13:08.177Z,26.07
2017-12-03T17:15:34.357Z,21.87
2017-12-03T17:18:00.482Z,24.20
2017-12-03T17:20:26.957Z,24.70
2017-12-03T17:22:53.252Z,23.27
2017-12-03T17:25:19.435Z,34.00
2017-12-03T17:27:45.649Z,25.27
2017-12-03T17:30:11.794Z,24.93
2017-12-03T17:32:38.004Z,28.00
2017-12-03T17:35:04.108Z,29.67
2017-12-03T17:37:30.248Z,26.17
2017-12-03T17:39:56.406Z,24.93
2017-12-03T17:42:22.623Z,31.47
2017-12-03T17:44:48.746Z,27.27
2017-12-03T17:47:14.910Z,27.53
2017-12-03T17:49:41.057Z,26.30
2017-12-03T17:52:07.231Z,24.90
2017-12-03T17:54:33.391Z,27.80
2017-12-03T17:56:59.614Z,24.27
2017-12-03T17:59:25.878Z,25.00
2017-12-03T18:01:52.009Z,23.20
2017-12-03T18:04:18.146Z,23.30
2017-12-03T18:06:44.281Z,27.07
2017-12-03T18:09:10.432Z,25.20
2017-12-03T18:11:36.622Z,23.87
2017-12-03T18:14:02.767Z,24.90
2017-12-03T18:16:28.960Z,25.73
2017-12-03T18:18:55.132Z,23.30
2017-12-03T18:21:21.330Z,23.17
2017-12-03T18:23:47.551Z,24.17
2017-12-03T18:26:13.713Z,23.40
2017-12-03T18:28:39.968Z,22.20
2017-12-03T18:31:06.114Z,24.17
2017-12-03T18:33:32.701Z,35.17
2017-12-03T18:35:58.920Z,23.80
2017-12-03T18:38:25.073Z,22.13
2017-12-03T18:40:51.458Z,20.83
2017-12-03T18:43:17.683Z,23.63
2017-12-03T18:45:44.074Z,23.53
2017-12-03T18:48:10.383Z,22.20
2017-12-03T18:50:36.715Z,25.97
2017-12-03T18:53:02.900Z,21.07
2017-12-03T18:55:29.282Z,23.73
2017-12-03T18:57:56.368Z,21.07
2017-12-03T19:00:22.480Z,23.20
2017-12-03T19:02:48.760Z,23.93
2017-12-03T19:05:14.964Z,21.87
2017-12-03T19:07:41.167Z,22.80
2017-12-03T19:10:07.438Z,24.00
2017-12-03T19:12:33.713Z,20.90
2017-12-03T19:14:59.966Z,20.47
2017-12-03T19:17:26.138Z,23.17
2017-12-03T19:19:52.595Z,20.43
2017-12-03T19:22:18.790Z,21.30
2017-12-03T19:24:45.155Z,20.77
2017-12-03T19:27:11.583Z,22.00
2017-12-03T19:29:38.029Z,21.60
2017-12-03T19:32:04.331Z,23.33
2017-12-03T19:34:30.627Z,22.40
2017-12-03T19:36:56.877Z,20.00
2017-12-03T19:39:23.166Z,23.00
2017-12-03T19:41:49.568Z,23.77
2017-12-03T19:44:15.891Z,23.53
2017-12-03T19:46:42.191Z,23.90
2017-12-03T19:49:08.552Z,22.50
2017-12-03T19:51:35.009Z,20.67
2017-12-03T19:54:01.376Z,21.17
2017-12-03T19:56:27.792Z,19.40
2017-12-03T19:58:54.539Z,21.73
2017-12-03T20:01:20.894Z,21.90
2017-12-03T20:03:47.269Z,21.10
2017-12-03T20:06:13.664Z,22.27
2017-12-03T20:08:40.320Z,18.43
2017-12-03T20:11:07.164Z,20.90
2017-12-03T20:13:33.572Z,20.87
2017-12-03T20:16:00.978Z,21.40
2017-12-03T20:18:27.334Z,20.17
2017-12-03T20:20:53.766Z,20.70
2017-12-03T20:23:20.728Z,20.80
2017-12-03T20:25:47.160Z,20.83
2017-12-03T20:28:13.653Z,21.60
2017-12-03T20:30:40.113Z,21.07
2017-12-03T20:33:06.674Z,22.57
2017-12-03T20:35:33.074Z,22.50
2017-12-03T20:37:59.427Z,20.97
2017-12-03T20:40:25.726Z,27.03
2017-12-03T20:42:52.048Z,24.97
2017-12-03T20:45:18.341Z,19.30
2017-12-03T20:47:44.622Z,20.57
2017-12-03T20:50:10.940Z,21.80
2017-12-03T20:52:38.073Z,19.60
2017-12-03T20:55:04.290Z,20.87
2017-12-03T20:57:30.505Z,21.80
2017-12-03T20:59:56.746Z,19.07
2017-12-03T21:02:23.024Z,19.20
2017-12-03T21:04:49.355Z,19.70
2017-12-03T21:07:15.684Z,20.60
2017-12-03T21:09:41.859Z,20.07
2017-12-03T21:12:09.113Z,19.63
2017-12-03T21:14:35.397Z,20.27
2017-12-03T21:17:02.004Z,19.40
2017-12-03T21:19:28.214Z,20.77
2017-12-03T21:21:54.395Z,19.87
2017-12-03T21:24:20.693Z,21.30
2017-12-03T21:26:46.781Z,20.47
2017-12-03T21:29:13.009Z,19.03
2017-12-03T21:31:39.107Z,19.67
2017-12-03T21:34:05.448Z,22.50
2017-12-03T21:36:31.648Z,21.33
2017-12-03T21:38:57.911Z,19.50
2017-12-03T21:41:24.098Z,22.30
2017-12-03T21:43:50.195Z,18.73
2017-12-03T21:46:16.320Z,22.10
2017-12-03T21:48:42.435Z,18.43
2017-12-03T21:51:08.597Z,19.63
2017-12-03T21:53:34.756Z,19.87
2017-12-03T21:56:01.105Z,19.00
2017-12-03T21:58:27.244Z,20.50
2017-12-03T22:00:53.500Z,20.67
2017-12-03T22:03:20.476Z,17.13
2017-12-03T22:05:46.653Z,17.07
2017-12-03T22:08:13.184Z,19.77
2017-12-03T22:10:40.562Z,19.97
2017-12-03T22:13:06.652Z,21.07
2017-12-03T22:15:33.342Z,20.23
2017-12-03T22:17:59.463Z,19.07
2017-12-03T22:20:25.681Z,20.97
2017-12-03T22:22:51.940Z,19.50
2017-12-03T22:25:18.296Z,21.27
2017-12-03T22:27:44.495Z,20.67
2017-12-03T22:30:10.760Z,19.37
2017-12-03T22:32:36.935Z,23.20
2017-12-03T22:35:03.294Z,20.17
2017-12-03T22:37:29.492Z,15.90
2017-12-03T22:39:55.618Z,21.57
2017-12-03T22:42:21.799Z,18.30
2017-12-03T22:44:47.976Z,20.20
2017-12-03T22:47:26.260Z,20.27
2017-12-03T22:49:53.126Z,18.53
2017-12-03T22:52:19.324Z,22.00
2017-12-03T22:54:45.459Z,18.23
2017-12-03T22:57:12.205Z,18.87
2017-12-03T22:59:38.395Z,16.83
2017-12-03T23:02:05.262Z,16.87
2017-12-03T23:04:31.412Z,16.40
2017-12-03T23:06:58.012Z,18.13
2017-12-03T23:09:24.133Z,10.00
2017-12-03T23:11:50.262Z,14.30
2017-12-03T23:14:16.416Z,19.63
2017-12-03T23:16:42.540Z,17.77
2017-12-03T23:19:08.652Z,16.93
2017-12-03T23:21:34.759Z,18.23
2017-12-03T23:24:00.921Z,16.40
2017-12-03T23:26:27.045Z,12.47
2017-12-03T23:28:53.205Z,14.13
2017-12-03T23:31:19.415Z,17.27
2017-12-03T23:33:45.600Z,17.37
2017-12-03T23:36:11.744Z,20.10
2017-12-03T23:38:37.938Z,16.33
2017-12-03T23:41:04.037Z,18.00
2017-12-03T23:43:30.264Z,16.23
2017-12-03T23:45:56.372Z,14.90
2017-12-03T23:48:22.503Z,17.20
2017-12-03T23:50:48.604Z,15.43
2017-12-03T23:53:14.727Z,16.53
2017-12-03T23:55:40.832Z,14.27
2017-12-03T23:58:06.919Z,14.30
